createdAt,value
2017-12-24T00:00:26.928Z,18.67
2017-12-24T00:03:00.887Z,18.97
2017-12-24T00:05:35.410Z,19.00
2017-12-24T00:08:09.151Z,17.37
2017-12-24T00:10:43.844Z,20.87
2017-12-24T00:13:18.061Z,17.90
2017-12-24T00:15:51.930Z,17.03
2017-12-24T00:18:25.824Z,18.30
2017-12-24T00:20:59.640Z,16.10
2017-12-24T00:23:33.365Z,15.67
2017-12-24T00:26:07.253Z,17.40
2017-12-24T00:28:41.248Z,16.10
2017-12-24T00:31:15.207Z,16.90
2017-12-24T00:33:49.315Z,17.07
2017-12-24T00:36:23.467Z,15.73
2017-12-24T00:38:57.871Z,15.10
2017-12-24T00:41:32.326Z,17.53
2017-12-24T00:44:06.547Z,14.83
2017-12-24T00:46:40.553Z,18.40
2017-12-24T00:49:14.429Z,16.57
2017-12-24T00:51:48.468Z,18.83
2017-12-24T00:54:22.631Z,16.70
2017-12-24T00:56:56.546Z,18.20
2017-12-24T00:59:31.570Z,17.70
2017-12-24T01:02:05.517Z,18.63
2017-12-24T01:04:39.695Z,19.17
2017-12-24T01:07:13.570Z,18.30
2017-12-24T01:09:48.819Z,19.97
2017-12-24T01:12:22.956Z,19.33
2017-12-24T01:14:56.703Z,19.37
2017-12-24T01:17:30.775Z,20.57
2017-12-24T01:20:05.580Z,17.57
2017-12-24T01:22:39.934Z,19.57
2017-12-24T01:25:13.845Z,19.97
2017-12-24T01:27:47.896Z,19.40
2017-12-24T01:30:23.197Z,19.90
2017-12-24T01:32:57.437Z,18.20
2017-12-24T01:35:31.938Z,18.87
2017-12-24T01:38:07.393Z,17.47
2017-12-24T01:40:41.030Z,18.93
2017-12-24T01:43:15.690Z,18.10
2017-12-24T01:45:49.787Z,19.50
2017-12-24T01:48:24.269Z,20.73
2017-12-24T01:50:58.866Z,18.80
2017-12-24T01:53:33.204Z,21.17
2017-12-24T01:56:07.043Z,19.23
2017-12-24T01:58:41.105Z,19.33
2017-12-24T02:01:15.906Z,17.23
2017-12-24T02:03:50.184Z,18.07
2017-12-24T02:06:24.164Z,20.17
2017-12-24T02:08:58.144Z,18.03
2017-12-24T02:11:32.212Z,18.90
2017-12-24T02:14:06.844Z,18.57
2017-12-24T02:16:41.134Z,15.10
2017-12-24T02:19:15.118Z,16.30
2017-12-24T02:21:49.197Z,17.80
2017-12-24T02:24:23.848Z,18.53
2017-12-24T02:26:58.547Z,16.33
2017-12-24T02:29:32.852Z,16.27
2017-12-24T02:32:08.050Z,16.70
2017-12-24T02:34:41.712Z,15.63
2017-12-24T02:37:15.676Z,17.77
2017-12-24T02:39:51.071Z,16.70
2017-12-24T02:42:25.710Z,14.57
2017-12-24T02:44:59.534Z,15.47
2017-12-24T02:47:33.557Z,17.63
2017-12-24T02:50:07.666Z,15.60
2017-12-24T02:52:42.274Z,17.33
2017-12-24T02:55:17.318Z,18.90
2017-12-24T02:57:51.610Z,18.07
2017-12-24T03:00:25.917Z,18.00
2017-12-24T03:03:01.159Z,17.80
2017-12-24T03:05:35.628Z,17.87
2017-12-24T03:08:10.435Z,18.10
2017-12-24T03:10:44.578Z,20.90
2017-12-24T03:13:18.613Z,18.63
2017-12-24T03:15:52.500Z,21.50
2017-12-24T03:18:26.465Z,19.33
2017-12-24T03:21:01.279Z,21.40
2017-12-24T03:23:35.506Z,18.80
2017-12-24T03:26:09.458Z,19.17
2017-12-24T03:28:43.159Z,18.50
2017-12-24T03:31:17.175Z,20.00
2017-12-24T03:33:52.023Z,20.03
2017-12-24T03:36:27.102Z,21.43
2017-12-24T03:39:01.038Z,14.83
2017-12-24T03:41:34.949Z,19.80
2017-12-24T03:44:08.680Z,21.53
2017-12-24T03:46:42.605Z,21.03
2017-12-24T03:49:16.265Z,19.73
2017-12-24T03:51:50.443Z,21.23
2017-12-24T03:54:24.704Z,21.10
2017-12-24T03:56:59.245Z,21.30
2017-12-24T03:59:33.689Z,21.00
2017-12-24T04:02:07.869Z,21.33
2017-12-24T04:04:41.770Z,21.70
2017-12-24T04:07:16.337Z,21.23
2017-12-24T04:09:50.688Z,21.30
2017-12-24T04:12:24.633Z,20.20
2017-12-24T04:14:58.489Z,22.13
2017-12-24T04:17:33.112Z,21.73
2017-12-24T04:20:08.133Z,20.80
2017-12-24T04:22:42.314Z,23.00
2017-12-24T04:25:17.187Z,21.30
2017-12-24T04:27:52.154Z,23.10
2017-12-24T04:30:27.573Z,23.87
2017-12-24T04:33:01.357Z,21.23
2017-12-24T04:35:35.697Z,21.63
2017-12-24T04:38:10.193Z,22.27
2017-12-24T04:40:44.213Z,20.40
2017-12-24T04:43:18.081Z,20.00
2017-12-24T04:45:51.756Z,22.70
2017-12-24T04:48:26.172Z,22.03
2017-12-24T04:51:00.963Z,21.43
2017-12-24T04:53:35.662Z,22.33
2017-12-24T04:56:09.713Z,21.67
2017-12-24T04:58:44.886Z,21.10
2017-12-24T05:01:18.739Z,21.67
2017-12-24T05:03:52.548Z,20.20
2017-12-24T05:06:26.412Z,22.87
2017-12-24T05:09:00.714Z,22.30
2017-12-24T05:11:34.641Z,21.37
2017-12-24T05:14:09.408Z,21.77
2017-12-24T05:16:43.560Z,20.40
2017-12-24T05:19:17.561Z,21.50
2017-12-24T05:21:51.440Z,20.53
2017-12-24T05:24:25.976Z,21.13
2017-12-24T05:27:00.496Z,20.90
2017-12-24T05:29:35.118Z,20.93
2017-12-24T05:32:09.171Z,18.83
2017-12-24T05:34:42.965Z,21.53
2017-12-24T05:37:18.162Z,21.80
2017-12-24T05:39:51.906Z,20.80
2017-12-24T05:42:25.966Z,21.30
2017-12-24T05:44:59.888Z,22.20
2017-12-24T05:47:34.053Z,21.33
2017-12-24T05:50:08.855Z,20.57
2017-12-24T05:52:43.209Z,22.57
2017-12-24T05:55:18.108Z,20.47
2017-12-24T05:57:52.224Z,20.67
2017-12-24T06:00:26.850Z,20.97
2017-12-24T06:03:00.923Z,22.10
2017-12-24T06:05:34.737Z,19.50
2017-12-24T06:08:08.545Z,19.90
2017-12-24T06:10:42.860Z,20.00
2017-12-24T06:13:17.371Z,19.13
2017-12-24T06:15:51.811Z,20.43
2017-12-24T06:18:26.805Z,20.63
2017-12-24T06:21:01.577Z,20.77
2017-12-24T06:23:36.369Z,18.20
2017-12-24T06:26:10.874Z,19.80
2017-12-24T06:28:44.793Z,20.80
2017-12-24T06:31:18.809Z,19.83
2017-12-24T06:33:52.792Z,19.07
2017-12-24T06:36:27.895Z,18.80
2017-12-24T06:39:03.230Z,20.57
2017-12-24T06:41:37.232Z,19.40
2017-12-24T06:44:11.150Z,19.43
2017-12-24T06:46:45.894Z,21.60
2017-12-24T06:49:20.875Z,18.20
2017-12-24T06:51:55.734Z,20.20
2017-12-24T06:54:29.890Z,19.57
2017-12-24T06:57:04.012Z,23.10
2017-12-24T06:59:38.028Z,20.20
2017-12-24T07:02:13.493Z,20.33
2017-12-24T07:04:47.975Z,22.67
2017-12-24T07:07:22.729Z,19.37
2017-12-24T07:09:58.121Z,21.40
2017-12-24T07:12:32.739Z,20.43
2017-12-24T07:15:06.526Z,22.73
2017-12-24T07:17:40.601Z,22.33
2017-12-24T07:20:15.126Z,20.17
2017-12-24T07:22:49.778Z,22.17
2017-12-24T07:25:23.505Z,18.73
2017-12-24T07:27:58.101Z,20.20
2017-12-24T07:30:33.153Z,19.60
2017-12-24T07:33:07.328Z,20.03
2017-12-24T07:35:41.381Z,17.30
2017-12-24T07:38:15.550Z,17.43
2017-12-24T07:40:49.468Z,20.30
2017-12-24T07:43:23.388Z,17.37
2017-12-24T07:45:59.184Z,18.50
2017-12-24T07:48:33.889Z,18.47
2017-12-24T07:51:07.484Z,18.00
2017-12-24T07:53:42.416Z,19.20
2017-12-24T07:56:16.764Z,17.53
2017-12-24T07:58:50.632Z,18.47
2017-12-24T08:01:25.273Z,17.10
2017-12-24T08:04:00.375Z,16.63
2017-12-24T08:06:35.618Z,18.23
2017-12-24T08:09:09.387Z,17.00
2017-12-24T08:11:44.149Z,15.37
2017-12-24T08:14:18.368Z,17.57
2017-12-24T08:16:52.194Z,17.03
2017-12-24T08:19:26.817Z,18.27
2017-12-24T08:22:01.054Z,18.10
2017-12-24T08:24:34.878Z,19.03
2017-12-24T08:27:09.582Z,15.90
2017-12-24T08:29:44.518Z,17.77
2017-12-24T08:32:18.609Z,17.00
2017-12-24T08:34:53.251Z,18.20
2017-12-24T08:37:28.045Z,15.13
2017-12-24T08:40:02.357Z,18.80
2017-12-24T08:42:37.097Z,17.93
2017-12-24T08:45:11.859Z,17.70
2017-12-24T08:47:46.642Z,17.07
2017-12-24T08:50:20.752Z,18.00
2017-12-24T08:52:54.601Z,16.67
2017-12-24T08:55:28.764Z,16.57
2017-12-24T08:58:02.934Z,23.80
2017-12-24T09:00:37.276Z,13.30
2017-12-24T09:03:11.809Z,15.97
2017-12-24T09:05:45.986Z,17.70
2017-12-24T09:08:20.000Z,17.20
2017-12-24T09:10:54.640Z,16.87
2017-12-24T09:13:28.981Z,15.90
2017-12-24T09:16:03.640Z,14.93
2017-12-24T09:18:38.571Z,15.90
2017-12-24T09:21:12.793Z,16.80
2017-12-24T09:23:46.868Z,15.40
2017-12-24T09:26:20.667Z,16.23
2017-12-24T09:28:55.750Z,13.93
2017-12-24T09:31:30.334Z,14.20
2017-12-24T09:34:04.861Z,13.67
2017-12-24T09:36:39.923Z,14.83
2017-12-24T09:39:14.832Z,14.97
2017-12-24T09:41:50.209Z,15.73
2017-12-24T09:44:23.949Z,13.37
2017-12-24T09:46:58.744Z,14.97
2017-12-24T09:49:32.880Z,12.77
2017-12-24T09:52:08.049Z,15.23
2017-12-24T09:54:41.786Z,15.20
2017-12-24T09:57:15.658Z,14.07
2017-12-24T09:59:49.577Z,13.80
2017-12-24T10:02:24.201Z,15.30
2017-12-24T10:04:58.969Z,13.53
2017-12-24T10:07:34.301Z,12.50
2017-12-24T10:10:08.216Z,13.40
2017-12-24T10:12:42.245Z,14.33
2017-12-24T10:15:17.524Z,11.53
2017-12-24T10:17:52.100Z,12.97
2017-12-24T10:20:26.089Z,13.83
2017-12-24T10:23:00.089Z,13.40
2017-12-24T10:25:34.611Z,12.10
2017-12-24T10:28:09.546Z,14.13
2017-12-24T10:30:44.502Z,12.23
2017-12-24T10:33:18.804Z,13.73
2017-12-24T10:35:53.518Z,13.87
2017-12-24T10:38:27.558Z,14.30
2017-12-24T10:41:02.246Z,13.47
2017-12-24T10:43:36.638Z,13.50
2017-12-24T10:46:10.389Z,14.27
2017-12-24T10:48:44.366Z,13.50
2017-12-24T10:51:19.228Z,12.23
2017-12-24T10:53:53.461Z,13.87
2017-12-24T10:56:27.369Z,12.63
2017-12-24T10:59:01.156Z,14.27
2017-12-24T11:01:34.957Z,13.00
2017-12-24T11:04:09.038Z,11.83
2017-12-24T11:06:42.985Z,13.00
2017-12-24T11:09:18.086Z,11.90
2017-12-24T11:11:51.915Z,13.20
2017-12-24T11:14:25.780Z,11.93
2017-12-24T11:17:00.560Z,11.40
2017-12-24T11:19:34.777Z,11.00
2017-12-24T11:22:09.151Z,11.43
2017-12-24T11:24:43.914Z,10.20
2017-12-24T11:27:18.553Z,10.27
2017-12-24T11:29:52.768Z,11.40
2017-12-24T11:32:26.713Z,9.50
2017-12-24T11:35:00.911Z,9.50
2017-12-24T11:37:34.957Z,11.17
2017-12-24T11:40:08.902Z,9.60
2017-12-24T11:42:42.888Z,11.20
2017-12-24T11:45:17.551Z,10.30
2017-12-24T11:47:51.846Z,9.03
2017-12-24T11:50:25.786Z,9.40
2017-12-24T11:53:00.670Z,11.10
2017-12-24T11:55:35.904Z,10.07
2017-12-24T11:58:09.551Z,11.23
2017-12-24T12:00:44.020Z,12.07
2017-12-24T12:03:17.946Z,11.70
2017-12-24T12:05:51.675Z,12.20
2017-12-24T12:08:25.633Z,12.07
2017-12-24T12:11:01.741Z,12.33
2017-12-24T12:13:35.464Z,11.13
2017-12-24T12:16:09.129Z,11.87
2017-12-24T12:18:43.145Z,11.30
2017-12-24T12:21:17.285Z,12.67
2017-12-24T12:23:51.147Z,12.70
2017-12-24T12:26:25.223Z,11.90
2017-12-24T12:28:59.305Z,11.97
2017-12-24T12:31:33.317Z,11.90
2017-12-24T12:34:09.086Z,11.60
2017-12-24T12:36:43.590Z,12.47
2017-12-24T12:39:17.797Z,12.50
2017-12-24T12:41:51.735Z,12.10
2017-12-24T12:44:25.978Z,11.97
2017-12-24T12:47:00.498Z,12.27
2017-12-24T12:49:35.462Z,11.30
2017-12-24T12:52:09.577Z,10.97
2017-12-24T12:54:44.450Z,11.10
2017-12-24T12:57:20.237Z,9.60
2017-12-24T12:59:55.508Z,9.17
2017-12-24T13:02:29.749Z,10.00
2017-12-24T13:05:04.453Z,9.80
2017-12-24T13:07:39.479Z,9.87
2017-12-24T13:10:13.727Z,10.00
2017-12-24T13:12:48.325Z,9.97
2017-12-24T13:15:23.269Z,9.80
2017-12-24T13:17:58.320Z,11.20
2017-12-24T13:20:32.613Z,9.90
2017-12-24T13:23:07.541Z,9.80
2017-12-24T13:25:42.334Z,9.70
2017-12-24T13:28:16.516Z,9.70
2017-12-24T13:30:51.035Z,8.80
2017-12-24T13:33:25.374Z,9.87
2017-12-24T13:36:00.132Z,8.67
2017-12-24T13:38:34.385Z,8.83
2017-12-24T13:41:08.481Z,9.77
2017-12-24T13:43:43.113Z,7.67
2017-12-24T13:46:16.981Z,8.00
2017-12-24T13:48:50.672Z,6.73
2017-12-24T13:51:24.909Z,8.30
2017-12-24T13:53:58.850Z,6.60
2017-12-24T13:56:32.857Z,5.93
2017-12-24T13:59:07.597Z,5.73
2017-12-24T14:01:41.540Z,6.10
2017-12-24T14:04:15.603Z,6.30
2017-12-24T14:06:49.599Z,5.77
2017-12-24T14:09:24.442Z,6.70
2017-12-24T14:11:58.397Z,6.10
2017-12-24T14:14:32.161Z,6.97
2017-12-24T14:17:06.638Z,6.60
2017-12-24T14:19:40.917Z,5.90
2017-12-24T14:22:15.465Z,6.00
2017-12-24T14:24:49.559Z,7.20
2017-12-24T14:27:23.504Z,5.80
2017-12-24T14:29:57.238Z,6.60
2017-12-24T14:32:31.299Z,6.60
2017-12-24T14:35:05.822Z,6.23
2017-12-24T14:37:39.984Z,6.67
2017-12-24T14:40:13.788Z,6.10
2017-12-24T14:42:48.409Z,6.73
2017-12-24T14:45:22.236Z,6.30
2017-12-24T14:47:56.861Z,6.20
2017-12-24T14:50:30.862Z,6.73
2017-12-24T14:53:04.786Z,5.93
2017-12-24T14:55:39.474Z,6.70
2017-12-24T14:58:13.191Z,5.77
2017-12-24T15:00:48.707Z,4.97
2017-12-24T15:03:23.866Z,6.77
2017-12-24T15:05:58.566Z,6.70
2017-12-24T15:08:33.431Z,6.93
2017-12-24T15:11:08.195Z,7.23
2017-12-24T15:13:41.870Z,6.90
2017-12-24T15:16:16.104Z,7.97
2017-12-24T15:18:50.139Z,7.20
2017-12-24T15:21:25.068Z,7.53
2017-12-24T15:24:00.431Z,7.50
2017-12-24T15:26:35.393Z,8.23
2017-12-24T15:29:09.367Z,8.30
2017-12-24T15:31:44.202Z,8.03
2017-12-24T15:34:17.956Z,8.87
2017-12-24T15:36:52.766Z,7.83
2017-12-24T15:39:26.993Z,7.40
2017-12-24T15:42:01.623Z,7.97
2017-12-24T15:44:35.737Z,8.13
2017-12-24T15:47:09.707Z,7.60
2017-12-24T15:49:44.334Z,8.67
2017-12-24T15:52:18.875Z,6.97
2017-12-24T15:54:53.032Z,8.57
2017-12-24T15:57:26.853Z,9.50
2017-12-24T16:00:00.804Z,7.67
2017-12-24T16:02:34.521Z,9.70
2017-12-24T16:05:08.442Z,8.57
2017-12-24T16:07:43.362Z,8.97
2017-12-24T16:10:17.698Z,8.97
2017-12-24T16:12:52.171Z,11.40
2017-12-24T16:15:26.226Z,10.50
2017-12-24T16:18:00.993Z,11.30
2017-12-24T16:20:35.271Z,11.60
2017-12-24T16:23:09.282Z,12.03
2017-12-24T16:25:43.247Z,12.30
2017-12-24T16:28:17.172Z,12.83
2017-12-24T16:30:51.045Z,12.43
2017-12-24T16:33:25.824Z,14.00
2017-12-24T16:36:00.942Z,13.50
2017-12-24T16:38:35.801Z,12.70
2017-12-24T16:41:10.350Z,12.37
2017-12-24T16:43:44.625Z,12.77
2017-12-24T16:46:19.546Z,12.40
2017-12-24T16:48:54.775Z,11.87
2017-12-24T16:51:29.759Z,13.93
2017-12-24T16:54:03.988Z,13.67
2017-12-24T16:56:38.558Z,12.27
2017-12-24T16:59:12.667Z,13.93
2017-12-24T17:01:46.595Z,12.77
2017-12-24T17:04:20.742Z,13.43
2017-12-24T17:06:54.509Z,13.53
2017-12-24T17:09:28.658Z,14.10
2017-12-24T17:12:03.322Z,15.77
2017-12-24T17:14:37.603Z,15.30
2017-12-24T17:17:11.774Z,14.53
2017-12-24T17:19:45.673Z,15.97
2017-12-24T17:22:19.611Z,15.77
2017-12-24T17:24:54.564Z,14.50
2017-12-24T17:27:29.550Z,13.43
2017-12-24T17:30:03.767Z,16.00
2017-12-24T17:32:37.776Z,14.43
2017-12-24T17:35:12.502Z,14.50
2017-12-24T17:37:46.800Z,15.03
2017-12-24T17:40:20.692Z,16.57
2017-12-24T17:42:55.675Z,16.37
2017-12-24T17:45:29.481Z,15.97
2017-12-24T17:48:03.745Z,17.20
2017-12-24T17:50:37.624Z,16.53
2017-12-24T17:53:12.706Z,17.23
2017-12-24T17:55:46.928Z,18.30
2017-12-24T17:58:20.829Z,16.70
2017-12-24T18:00:55.381Z,17.33
2017-12-24T18:03:29.515Z,16.90
2017-12-24T18:06:03.526Z,16.90
2017-12-24T18:08:37.394Z,17.20
2017-12-24T18:11:11.389Z,17.53
2017-12-24T18:13:46.112Z,17.53
2017-12-24T18:16:20.311Z,18.60
2017-12-24T18:18:54.030Z,15.07
2017-12-24T18:21:29.153Z,15.90
2017-12-24T18:24:02.795Z,16.67
2017-12-24T18:26:37.751Z,17.57
2017-12-24T18:29:11.969Z,16.80
2017-12-24T18:31:46.571Z,19.10
2017-12-24T18:34:21.189Z,16.83
2017-12-24T18:36:56.288Z,19.20
2017-12-24T18:39:31.460Z,18.87
2017-12-24T18:42:06.465Z,18.13
2017-12-24T18:44:40.813Z,13.20
2017-12-24T18:47:14.658Z,18.57
2017-12-24T18:49:48.602Z,16.17
2017-12-24T18:52:22.425Z,17.90
2017-12-24T18:54:56.382Z,19.60
2017-12-24T18:57:30.940Z,19.33
2017-12-24T19:00:05.017Z,16.23
2017-12-24T19:02:38.982Z,16.53
2017-12-24T19:05:12.994Z,17.00
2017-12-24T19:07:46.899Z,16.30
2017-12-24T19:10:20.826Z,16.50
2017-12-24T19:12:54.860Z,17.20
2017-12-24T19:15:29.647Z,17.80
2017-12-24T19:18:04.514Z,18.70
2017-12-24T19:20:39.276Z,18.60
2017-12-24T19:23:13.509Z,19.17
2017-12-24T19:25:47.282Z,17.93
2017-12-24T19:28:21.164Z,16.30
2017-12-24T19:30:54.921Z,16.73
2017-12-24T19:33:29.107Z,18.20
2017-12-24T19:36:02.950Z,18.70
2017-12-24T19:38:37.020Z,14.43
2017-12-24T19:41:11.969Z,18.30
2017-12-24T19:43:47.430Z,16.20
2017-12-24T19:46:21.566Z,18.37
2017-12-24T19:48:56.235Z,19.30
2017-12-24T19:51:30.294Z,20.20
2017-12-24T19:54:04.226Z,17.80
2017-12-24T19:56:38.408Z,18.10
2017-12-24T19:59:13.382Z,20.30
2017-12-24T20:01:47.777Z,19.50
2017-12-24T20:04:21.815Z,17.77
2017-12-24T20:06:56.360Z,18.80
2017-12-24T20:09:31.172Z,19.90
2017-12-24T20:12:05.584Z,19.50
2017-12-24T20:14:40.003Z,19.97
2017-12-24T20:17:15.653Z,20.43
2017-12-24T20:19:50.984Z,18.40
2017-12-24T20:22:25.354Z,19.90
2017-12-24T20:25:00.418Z,18.90
2017-12-24T20:27:35.945Z,20.37
2017-12-24T20:30:09.757Z,19.53
2017-12-24T20:32:43.877Z,18.43
2017-12-24T20:35:17.939Z,19.40
2017-12-24T20:37:51.763Z,19.70
2017-12-24T20:40:25.720Z,19.10
2017-12-24T20:43:01.168Z,21.03
2017-12-24T20:45:35.953Z,18.40
2017-12-24T20:48:11.293Z,21.23
2017-12-24T20:50:45.184Z,19.53
2017-12-24T20:53:19.516Z,18.67
2017-12-24T20:55:53.677Z,17.90
2017-12-24T20:58:28.317Z,16.20
2017-12-24T21:01:02.125Z,16.97
2017-12-24T21:03:37.024Z,17.93
2017-12-24T21:06:11.909Z,16.67
2017-12-24T21:08:46.189Z,18.63
2017-12-24T21:11:20.191Z,16.80
2017-12-24T21:13:54.886Z,17.50
2017-12-24T21:16:28.555Z,16.40
2017-12-24T21:19:03.443Z,15.60
2017-12-24T21:21:37.868Z,14.87
2017-12-24T21:24:12.788Z,17.30
2017-12-24T21:26:47.950Z,14.10
2017-12-24T21:29:22.452Z,14.10
2017-12-24T21:31:57.485Z,15.00
2017-12-24T21:34:32.705Z,14.90
2017-12-24T21:37:07.956Z,16.30
2017-12-24T21:39:42.278Z,14.73
2017-12-24T21:42:16.499Z,13.47
2017-12-24T21:44:51.657Z,14.07
2017-12-24T21:47:25.333Z,13.60
2017-12-24T21:50:00.059Z,13.03
2017-12-24T21:52:34.853Z,12.80
2017-12-24T21:55:09.818Z,12.53
2017-12-24T21:57:44.371Z,13.80
2017-12-24T22:00:18.583Z,13.17
2017-12-24T22:02:53.976Z,11.37
2017-12-24T22:05:28.462Z,13.93
2017-12-24T22:08:03.019Z,12.53
2017-12-24T22:10:37.228Z,10.27
2017-12-24T22:13:11.279Z,12.23
2017-12-24T22:15:45.895Z,12.77
2017-12-24T22:18:20.790Z,12.17
2017-12-24T22:20:55.045Z,15.17
2017-12-24T22:23:29.049Z,14.13
2017-12-24T22:26:03.868Z,14.77
2017-12-24T22:28:38.259Z,14.87
2017-12-24T22:31:12.054Z,14.80
2017-12-24T22:33:46.165Z,15.60
2017-12-24T22:36:20.418Z,14.27
2017-12-24T22:38:54.717Z,11.03
2017-12-24T22:41:29.687Z,12.33
2017-12-24T22:44:03.846Z,13.70
2017-12-24T22:46:38.168Z,14.40
2017-12-24T22:49:12.443Z,11.70
2017-12-24T22:51:47.338Z,10.87
2017-12-24T22:54:22.107Z,10.73
2017-12-24T22:56:55.819Z,10.10
2017-12-24T22:59:30.089Z,10.20
2017-12-24T23:02:05.055Z,10.93
2017-12-24T23:04:39.285Z,10.10
2017-12-24T23:07:13.386Z,11.00
2017-12-24T23:09:47.517Z,10.10
2017-12-24T23:12:22.840Z,10.37
2017-12-24T23:14:57.454Z,8.70
2017-12-24T23:17:31.783Z,10.07
2017-12-24T23:20:05.700Z,8.63
2017-12-24T23:22:39.567Z,8.73
2017-12-24T23:25:13.365Z,8.40
2017-12-24T23:27:47.545Z,9.03
2017-12-24T23:30:22.360Z,7.27
2017-12-24T23:32:56.620Z,8.30
2017-12-24T23:35:30.652Z,8.30
2017-12-24T23:38:04.399Z,7.40
2017-12-24T23:40:38.240Z,6.80
2017-12-24T23:43:12.875Z,6.17
2017-12-24T23:45:47.320Z,6.33
2017-12-24T23:48:21.973Z,6.37
2017-12-24T23:50:56.362Z,6.63
2017-12-24T23:53:31.118Z,6.43
2017-12-24T23:56:05.378Z,6.53
2017-12-24T23:58:39.737Z,5.20
